sensor_id;sensor_type;location;lat;lon;timestamp;P1;durP1;ratioP1;P2;durP2;ratioP2
78610;SDS011;67932;50.474;4.436;2023-08-06T00:00:49;4.07;;;1.23;;
78610;SDS011;67932;50.474;4.436;2023-08-06T00:03:15;4.43;;;1.48;;
78610;SDS011;67932;50.474;4.436;2023-08-06T00:05:42;4.78;;;1.60;;
78610;SDS011;67932;50.474;4.436;2023-08-06T00:08:08;3.13;;;1.38;;
78610;SDS011;67932;50.474;4.436;2023-08-06T00:10:34;5.32;;;1.60;;
78610;SDS011;67932;50.474;4.436;2023-08-06T00:13:01;8.18;;;1.63;;
78610;SDS011;67932;50.474;4.436;2023-08-06T00:15:27;3.90;;;1.60;;
78610;SDS011;67932;50.474;4.436;2023-08-06T00:17:53;5.07;;;2.65;;
78610;SDS011;67932;50.474;4.436;2023-08-06T00:20:21;3.95;;;1.88;;
78610;SDS011;67932;50.474;4.436;2023-08-06T00:22:47;9.07;;;2.40;;
78610;SDS011;67932;50.474;4.436;2023-08-06T00:25:13;9.15;;;2.80;;
78610;SDS011;67932;50.474;4.436;2023-08-06T00:27:39;6.13;;;2.42;;
78610;SDS011;67932;50.474;4.436;2023-08-06T00:30:05;7.05;;;2.80;;
78610;SDS011;67932;50.474;4.436;2023-08-06T00:32:32;6.22;;;2.50;;
78610;SDS011;67932;50.474;4.436;2023-08-06T00:34:58;7.70;;;3.17;;
78610;SDS011;67932;50.474;4.436;2023-08-06T00:37:24;7.70;;;2.83;;
78610;SDS011;67932;50.474;4.436;2023-08-06T00:39:51;6.53;;;3.10;;
78610;SDS011;67932;50.474;4.436;2023-08-06T00:42:17;11.48;;;3.88;;
78610;SDS011;67932;50.474;4.436;2023-08-06T00:44:45;10.45;;;3.80;;
78610;SDS011;67932;50.474;4.436;2023-08-06T00:47:12;8.50;;;4.05;;
78610;SDS011;67932;50.474;4.436;2023-08-06T00:49:39;9.57;;;3.92;;
78610;SDS011;67932;50.474;4.436;2023-08-06T00:52:05;10.18;;;3.95;;
78610;SDS011;67932;50.474;4.436;2023-08-06T00:54:33;10.55;;;3.38;;
78610;SDS011;67932;50.474;4.436;2023-08-06T00:57:01;8.70;;;3.55;;
78610;SDS011;67932;50.474;4.436;2023-08-06T00:59:28;10.95;;;4.88;;
78610;SDS011;67932;50.474;4.436;2023-08-06T01:01:56;9.98;;;3.78;;
78610;SDS011;67932;50.474;4.436;2023-08-06T01:04:22;12.48;;;4.30;;
78610;SDS011;67932;50.474;4.436;2023-08-06T01:06:52;11.48;;;3.42;;
78610;SDS011;67932;50.474;4.436;2023-08-06T01:09:43;10.10;;;4.10;;
78610;SDS011;67932;50.474;4.436;2023-08-06T01:12:50;6.70;;;3.97;;
78610;SDS011;67932;50.474;4.436;2023-08-06T01:15:19;10.00;;;4.00;;
78610;SDS011;67932;50.474;4.436;2023-08-06T01:17:50;10.13;;;4.68;;
78610;SDS011;67932;50.474;4.436;2023-08-06T01:20:17;10.90;;;5.47;;
78610;SDS011;67932;50.474;4.436;2023-08-06T01:22:43;14.35;;;6.35;;
78610;SDS011;67932;50.474;4.436;2023-08-06T01:25:09;12.55;;;6.13;;
78610;SDS011;67932;50.474;4.436;2023-08-06T01:27:47;13.95;;;5.97;;
78610;SDS011;67932;50.474;4.436;2023-08-06T01:30:19;14.70;;;6.57;;
78610;SDS011;67932;50.474;4.436;2023-08-06T01:32:51;16.08;;;7.07;;
78610;SDS011;67932;50.474;4.436;2023-08-06T01:35:23;12.63;;;6.38;;
78610;SDS011;67932;50.474;4.436;2023-08-06T01:37:50;14.15;;;7.18;;
78610;SDS011;67932;50.474;4.436;2023-08-06T01:40:17;15.80;;;6.75;;
78610;SDS011;67932;50.474;4.436;2023-08-06T01:42:43;11.75;;;6.53;;
78610;SDS011;67932;50.474;4.436;2023-08-06T01:45:09;13.25;;;7.35;;
78610;SDS011;67932;50.474;4.436;2023-08-06T01:47:36;16.02;;;6.25;;
78610;SDS011;67932;50.474;4.436;2023-08-06T01:50:02;13.10;;;6.10;;
78610;SDS011;67932;50.474;4.436;2023-08-06T01:52:29;12.32;;;6.30;;
78610;SDS011;67932;50.474;4.436;2023-08-06T01:54:55;12.98;;;6.05;;
78610;SDS011;67932;50.474;4.436;2023-08-06T01:57:21;10.63;;;5.75;;
78610;SDS011;67932;50.474;4.436;2023-08-06T01:59:48;10.35;;;5.68;;
78610;SDS011;67932;50.474;4.436;2023-08-06T02:02:14;9.40;;;5.35;;
78610;SDS011;67932;50.474;4.436;2023-08-06T02:04:40;12.38;;;5.80;;
78610;SDS011;67932;50.474;4.436;2023-08-06T02:07:06;13.85;;;5.68;;
78610;SDS011;67932;50.474;4.436;2023-08-06T02:09:33;8.30;;;4.78;;
78610;SDS011;67932;50.474;4.436;2023-08-06T02:12:00;11.75;;;4.90;;
78610;SDS011;67932;50.474;4.436;2023-08-06T02:14:27;10.20;;;5.40;;
78610;SDS011;67932;50.474;4.436;2023-08-06T02:16:53;8.93;;;5.13;;
78610;SDS011;67932;50.474;4.436;2023-08-06T02:19:19;8.80;;;4.15;;
78610;SDS011;67932;50.474;4.436;2023-08-06T02:21:46;9.30;;;4.20;;
78610;SDS011;67932;50.474;4.436;2023-08-06T02:24:12;7.93;;;3.70;;
78610;SDS011;67932;50.474;4.436;2023-08-06T02:26:38;7.40;;;4.15;;
78610;SDS011;67932;50.474;4.436;2023-08-06T02:29:04;8.65;;;4.10;;
78610;SDS011;67932;50.474;4.436;2023-08-06T02:31:31;6.95;;;4.00;;
78610;SDS011;67932;50.474;4.436;2023-08-06T02:33:57;8.18;;;3.65;;
78610;SDS011;67932;50.474;4.436;2023-08-06T02:36:23;6.18;;;3.40;;
78610;SDS011;67932;50.474;4.436;2023-08-06T02:38:52;6.93;;;3.70;;
78610;SDS011;67932;50.474;4.436;2023-08-06T02:41:18;6.20;;;3.67;;
78610;SDS011;67932;50.474;4.436;2023-08-06T02:43:44;5.20;;;3.30;;
78610;SDS011;67932;50.474;4.436;2023-08-06T02:46:10;4.82;;;2.60;;
78610;SDS011;67932;50.474;4.436;2023-08-06T02:48:37;6.13;;;3.08;;
78610;SDS011;67932;50.474;4.436;2023-08-06T02:51:03;4.32;;;2.88;;
78610;SDS011;67932;50.474;4.436;2023-08-06T02:53:29;6.35;;;2.92;;
78610;SDS011;67932;50.474;4.436;2023-08-06T02:55:56;4.40;;;2.60;;
78610;SDS011;67932;50.474;4.436;2023-08-06T02:58:23;2.92;;;2.22;;
78610;SDS011;67932;50.474;4.436;2023-08-06T03:01:03;5.65;;;2.10;;
78610;SDS011;67932;50.474;4.436;2023-08-06T03:03:31;3.47;;;2.00;;
78610;SDS011;67932;50.474;4.436;2023-08-06T03:05:58;2.13;;;1.50;;
78610;SDS011;67932;50.474;4.436;2023-08-06T03:08:24;3.58;;;1.60;;
78610;SDS011;67932;50.474;4.436;2023-08-06T03:10:51;2.38;;;1.08;;
78610;SDS011;67932;50.474;4.436;2023-08-06T03:13:17;2.15;;;1.20;;
78610;SDS011;67932;50.474;4.436;2023-08-06T03:15:57;1.83;;;1.20;;
78610;SDS011;67932;50.474;4.436;2023-08-06T03:18:24;2.40;;;0.80;;
78610;SDS011;67932;50.474;4.436;2023-08-06T03:20:51;0.82;;;0.40;;
78610;SDS011;67932;50.474;4.436;2023-08-06T03:23:18;2.03;;;0.73;;
78610;SDS011;67932;50.474;4.436;2023-08-06T03:25:44;2.95;;;0.75;;
78610;SDS011;67932;50.474;4.436;2023-08-06T03:28:11;3.35;;;0.80;;
78610;SDS011;67932;50.474;4.436;2023-08-06T03:30:37;2.17;;;0.60;;
78610;SDS011;67932;50.474;4.436;2023-08-06T03:33:03;5.05;;;1.42;;
78610;SDS011;67932;50.474;4.436;2023-08-06T03:35:30;7.32;;;2.30;;
78610;SDS011;67932;50.474;4.436;2023-08-06T03:37:56;0.93;;;0.63;;
78610;SDS011;67932;50.474;4.436;2023-08-06T03:40:22;3.35;;;1.02;;
78610;SDS011;67932;50.474;4.436;2023-08-06T03:42:48;2.33;;;1.00;;
78610;SDS011;67932;50.474;4.436;2023-08-06T03:45:15;1.55;;;0.70;;
78610;SDS011;67932;50.474;4.436;2023-08-06T03:47:41;1.30;;;0.80;;
78610;SDS011;67932;50.474;4.436;2023-08-06T03:50:07;4.07;;;1.17;;
78610;SDS011;67932;50.474;4.436;2023-08-06T03:52:34;2.88;;;1.20;;
78610;SDS011;67932;50.474;4.436;2023-08-06T03:55:00;4.22;;;1.50;;
78610;SDS011;67932;50.474;4.436;2023-08-06T03:57:26;1.88;;;1.00;;
78610;SDS011;67932;50.474;4.436;2023-08-06T03:59:52;1.90;;;1.00;;
78610;SDS011;67932;50.474;4.436;2023-08-06T04:02:18;4.82;;;1.02;;
78610;SDS011;67932;50.474;4.436;2023-08-06T04:04:45;2.50;;;1.25;;
78610;SDS011;67932;50.474;4.436;2023-08-06T04:07:11;2.72;;;1.58;;
78610;SDS011;67932;50.474;4.436;2023-08-06T04:09:53;5.50;;;1.60;;
78610;SDS011;67932;50.474;4.436;2023-08-06T04:12:22;4.32;;;1.90;;
78610;SDS011;67932;50.474;4.436;2023-08-06T04:14:49;3.55;;;1.88;;
78610;SDS011;67932;50.474;4.436;2023-08-06T04:17:17;3.55;;;2.28;;
78610;SDS011;67932;50.474;4.436;2023-08-06T04:19:50;5.22;;;3.05;;
78610;SDS011;67932;50.474;4.436;2023-08-06T04:22:16;4.80;;;2.60;;
78610;SDS011;67932;50.474;4.436;2023-08-06T04:24:44;6.30;;;3.38;;
78610;SDS011;67932;50.474;4.436;2023-08-06T04:27:10;8.05;;;3.15;;
78610;SDS011;67932;50.474;4.436;2023-08-06T04:29:37;10.00;;;4.07;;
78610;SDS011;67932;50.474;4.436;2023-08-06T04:32:05;6.18;;;3.50;;
78610;SDS011;67932;50.474;4.436;2023-08-06T04:34:33;6.13;;;2.90;;
78610;SDS011;67932;50.474;4.436;2023-08-06T04:37:00;6.20;;;3.35;;
78610;SDS011;67932;50.474;4.436;2023-08-06T04:39:27;5.28;;;3.78;;
78610;SDS011;67932;50.474;4.436;2023-08-06T04:41:55;8.68;;;3.50;;
78610;SDS011;67932;50.474;4.436;2023-08-06T04:44:22;5.53;;;2.67;;
78610;SDS011;67932;50.474;4.436;2023-08-06T04:46:49;4.55;;;3.33;;
78610;SDS011;67932;50.474;4.436;2023-08-06T04:49:15;5.10;;;2.88;;
78610;SDS011;67932;50.474;4.436;2023-08-06T04:51:42;4.78;;;3.17;;
78610;SDS011;67932;50.474;4.436;2023-08-06T04:54:08;5.55;;;2.60;;
78610;SDS011;67932;50.474;4.436;2023-08-06T04:56:34;5.38;;;2.80;;
78610;SDS011;67932;50.474;4.436;2023-08-06T04:59:01;4.72;;;3.05;;
78610;SDS011;67932;50.474;4.436;2023-08-06T05:01:27;6.43;;;3.00;;
78610;SDS011;67932;50.474;4.436;2023-08-06T05:03:53;6.45;;;3.00;;
78610;SDS011;67932;50.474;4.436;2023-08-06T05:06:20;4.93;;;3.28;;
78610;SDS011;67932;50.474;4.436;2023-08-06T05:08:46;7.93;;;3.90;;
78610;SDS011;67932;50.474;4.436;2023-08-06T05:11:12;4.93;;;2.83;;
78610;SDS011;67932;50.474;4.436;2023-08-06T05:13:38;4.30;;;2.50;;
78610;SDS011;67932;50.474;4.436;2023-08-06T05:16:05;5.57;;;2.90;;
78610;SDS011;67932;50.474;4.436;2023-08-06T05:18:31;4.03;;;2.65;;
78610;SDS011;67932;50.474;4.436;2023-08-06T05:20:59;6.90;;;2.58;;
78610;SDS011;67932;50.474;4.436;2023-08-06T05:23:25;7.60;;;3.00;;
78610;SDS011;67932;50.474;4.436;2023-08-06T05:25:51;2.65;;;2.33;;
78610;SDS011;67932;50.474;4.436;2023-08-06T05:28:18;4.30;;;1.70;;
78610;SDS011;67932;50.474;4.436;2023-08-06T05:30:44;5.65;;;1.60;;
78610;SDS011;67932;50.474;4.436;2023-08-06T05:33:10;3.78;;;1.80;;
78610;SDS011;67932;50.474;4.436;2023-08-06T05:35:36;4.05;;;2.05;;
78610;SDS011;67932;50.474;4.436;2023-08-06T05:38:03;6.63;;;2.22;;
78610;SDS011;67932;50.474;4.436;2023-08-06T05:40:29;6.40;;;2.30;;
78610;SDS011;67932;50.474;4.436;2023-08-06T05:42:57;8.70;;;2.40;;
78610;SDS011;67932;50.474;4.436;2023-08-06T05:45:24;6.28;;;2.50;;
78610;SDS011;67932;50.474;4.436;2023-08-06T05:47:50;6.40;;;2.38;;
78610;SDS011;67932;50.474;4.436;2023-08-06T05:50:18;5.70;;;2.22;;
78610;SDS011;67932;50.474;4.436;2023-08-06T05:52:45;5.65;;;2.55;;
78610;SDS011;67932;50.474;4.436;2023-08-06T05:55:11;8.20;;;2.03;;
78610;SDS011;67932;50.474;4.436;2023-08-06T05:57:37;7.70;;;2.28;;
78610;SDS011;67932;50.474;4.436;2023-08-06T06:00:03;6.30;;;2.10;;
78610;SDS011;67932;50.474;4.436;2023-08-06T06:02:31;10.18;;;2.45;;
78610;SDS011;67932;50.474;4.436;2023-08-06T06:04:57;8.52;;;2.90;;
78610;SDS011;67932;50.474;4.436;2023-08-06T06:07:23;9.48;;;3.00;;
78610;SDS011;67932;50.474;4.436;2023-08-06T06:09:49;8.02;;;2.15;;
78610;SDS011;67932;50.474;4.436;2023-08-06T06:12:16;4.75;;;2.10;;
78610;SDS011;67932;50.474;4.436;2023-08-06T06:14:43;7.68;;;2.75;;
78610;SDS011;67932;50.474;4.436;2023-08-06T06:17:09;9.52;;;2.78;;
78610;SDS011;67932;50.474;4.436;2023-08-06T06:19:35;7.28;;;2.95;;
78610;SDS011;67932;50.474;4.436;2023-08-06T06:22:01;5.50;;;2.30;;
78610;SDS011;67932;50.474;4.436;2023-08-06T06:24:28;10.38;;;2.97;;
78610;SDS011;67932;50.474;4.436;2023-08-06T06:26:54;11.93;;;2.97;;
78610;SDS011;67932;50.474;4.436;2023-08-06T06:29:20;6.30;;;2.70;;
78610;SDS011;67932;50.474;4.436;2023-08-06T06:31:46;9.13;;;2.90;;
78610;SDS011;67932;50.474;4.436;2023-08-06T06:34:12;12.05;;;3.22;;
78610;SDS011;67932;50.474;4.436;2023-08-06T06:36:39;7.03;;;2.75;;
78610;SDS011;67932;50.474;4.436;2023-08-06T06:39:05;8.32;;;3.05;;
78610;SDS011;67932;50.474;4.436;2023-08-06T06:41:31;8.85;;;3.10;;
78610;SDS011;67932;50.474;4.436;2023-08-06T06:43:58;10.57;;;3.88;;
78610;SDS011;67932;50.474;4.436;2023-08-06T06:46:24;7.95;;;3.35;;
78610;SDS011;67932;50.474;4.436;2023-08-06T06:48:50;10.70;;;3.65;;
78610;SDS011;67932;50.474;4.436;2023-08-06T06:51:17;8.88;;;3.30;;
78610;SDS011;67932;50.474;4.436;2023-08-06T06:53:43;10.20;;;3.05;;
78610;SDS011;67932;50.474;4.436;2023-08-06T06:56:09;9.50;;;2.75;;
78610;SDS011;67932;50.474;4.436;2023-08-06T06:58:35;9.15;;;3.83;;
78610;SDS011;67932;50.474;4.436;2023-08-06T07:01:04;8.05;;;2.35;;
78610;SDS011;67932;50.474;4.436;2023-08-06T07:03:30;9.45;;;2.88;;
78610;SDS011;67932;50.474;4.436;2023-08-06T07:05:57;8.38;;;2.78;;
78610;SDS011;67932;50.474;4.436;2023-08-06T07:08:24;8.07;;;2.78;;
78610;SDS011;67932;50.474;4.436;2023-08-06T07:10:50;8.68;;;2.25;;
78610;SDS011;67932;50.474;4.436;2023-08-06T07:13:24;4.93;;;1.92;;
78610;SDS011;67932;50.474;4.436;2023-08-06T07:15:50;5.53;;;2.47;;
78610;SDS011;67932;50.474;4.436;2023-08-06T07:18:16;6.40;;;2.05;;
78610;SDS011;67932;50.474;4.436;2023-08-06T07:20:47;3.63;;;1.27;;
78610;SDS011;67932;50.474;4.436;2023-08-06T07:23:21;4.53;;;1.25;;
78610;SDS011;67932;50.474;4.436;2023-08-06T07:25:48;4.72;;;0.80;;
78610;SDS011;67932;50.474;4.436;2023-08-06T07:28:14;3.25;;;1.40;;
78610;SDS011;67932;50.474;4.436;2023-08-06T07:30:41;5.30;;;1.20;;
78610;SDS011;67932;50.474;4.436;2023-08-06T07:33:09;4.13;;;1.00;;
78610;SDS011;67932;50.474;4.436;2023-08-06T07:35:35;6.93;;;1.35;;
78610;SDS011;67932;50.474;4.436;2023-08-06T07:38:02;5.22;;;1.25;;
78610;SDS011;67932;50.474;4.436;2023-08-06T07:40:28;3.85;;;1.10;;
78610;SDS011;67932;50.474;4.436;2023-08-06T07:42:55;5.43;;;1.65;;
78610;SDS011;67932;50.474;4.436;2023-08-06T07:45:21;5.40;;;1.40;;
78610;SDS011;67932;50.474;4.436;2023-08-06T07:47:47;3.35;;;1.05;;
78610;SDS011;67932;50.474;4.436;2023-08-06T07:50:13;4.45;;;0.85;;
78610;SDS011;67932;50.474;4.436;2023-08-06T07:52:40;2.85;;;1.10;;
78610;SDS011;67932;50.474;4.436;2023-08-06T07:55:06;9.48;;;1.65;;
78610;SDS011;67932;50.474;4.436;2023-08-06T07:57:33;4.28;;;1.08;;
78610;SDS011;67932;50.474;4.436;2023-08-06T07:59:59;4.95;;;1.10;;
78610;SDS011;67932;50.474;4.436;2023-08-06T08:02:26;4.22;;;1.73;;
78610;SDS011;67932;50.474;4.436;2023-08-06T08:04:52;6.22;;;1.27;;
78610;SDS011;67932;50.474;4.436;2023-08-06T08:07:18;3.30;;;1.40;;
78610;SDS011;67932;50.474;4.436;2023-08-06T08:09:45;4.70;;;1.50;;
78610;SDS011;67932;50.474;4.436;2023-08-06T08:12:13;5.65;;;1.90;;
78610;SDS011;67932;50.474;4.436;2023-08-06T08:14:39;5.45;;;1.45;;
78610;SDS011;67932;50.474;4.436;2023-08-06T08:17:06;5.72;;;1.88;;
78610;SDS011;67932;50.474;4.436;2023-08-06T08:19:32;6.57;;;1.60;;
78610;SDS011;67932;50.474;4.436;2023-08-06T08:21:59;5.28;;;1.50;;
78610;SDS011;67932;50.474;4.436;2023-08-06T08:24:25;3.95;;;1.90;;
78610;SDS011;67932;50.474;4.436;2023-08-06T08:26:52;5.88;;;1.98;;
78610;SDS011;67932;50.474;4.436;2023-08-06T08:29:21;7.85;;;1.73;;
78610;SDS011;67932;50.474;4.436;2023-08-06T08:31:48;4.22;;;1.30;;
78610;SDS011;67932;50.474;4.436;2023-08-06T08:34:16;4.55;;;1.45;;
78610;SDS011;67932;50.474;4.436;2023-08-06T08:36:42;3.83;;;1.48;;
78610;SDS011;67932;50.474;4.436;2023-08-06T08:39:11;2.58;;;1.50;;
78610;SDS011;67932;50.474;4.436;2023-08-06T08:41:38;4.65;;;2.22;;
78610;SDS011;67932;50.474;4.436;2023-08-06T08:44:08;6.47;;;1.70;;
78610;SDS011;67932;50.474;4.436;2023-08-06T08:46:38;4.18;;;1.92;;
78610;SDS011;67932;50.474;4.436;2023-08-06T08:49:05;6.53;;;2.08;;
78610;SDS011;67932;50.474;4.436;2023-08-06T08:51:32;3.25;;;1.15;;
78610;SDS011;67932;50.474;4.436;2023-08-06T08:54:02;5.10;;;1.58;;
78610;SDS011;67932;50.474;4.436;2023-08-06T08:56:29;4.97;;;1.55;;
78610;SDS011;67932;50.474;4.436;2023-08-06T08:58:56;3.40;;;1.38;;
78610;SDS011;67932;50.474;4.436;2023-08-06T09:01:23;3.28;;;1.23;;
78610;SDS011;67932;50.474;4.436;2023-08-06T09:03:50;4.57;;;1.90;;
78610;SDS011;67932;50.474;4.436;2023-08-06T09:06:19;7.78;;;1.92;;
78610;SDS011;67932;50.474;4.436;2023-08-06T09:08:53;2.92;;;1.63;;
78610;SDS011;67932;50.474;4.436;2023-08-06T09:11:33;4.03;;;1.33;;
78610;SDS011;67932;50.474;4.436;2023-08-06T09:14:06;4.25;;;1.38;;
78610;SDS011;67932;50.474;4.436;2023-08-06T09:16:36;5.10;;;1.23;;
78610;SDS011;67932;50.474;4.436;2023-08-06T09:19:13;3.20;;;1.40;;
78610;SDS011;67932;50.474;4.436;2023-08-06T09:21:42;6.38;;;1.45;;
78610;SDS011;67932;50.474;4.436;2023-08-06T09:24:09;5.00;;;1.35;;
78610;SDS011;67932;50.474;4.436;2023-08-06T09:26:43;5.80;;;1.15;;
78610;SDS011;67932;50.474;4.436;2023-08-06T09:29:10;8.05;;;1.40;;
78610;SDS011;67932;50.474;4.436;2023-08-06T09:34:16;4.93;;;1.20;;
78610;SDS011;67932;50.474;4.436;2023-08-06T09:36:48;2.33;;;0.90;;
78610;SDS011;67932;50.474;4.436;2023-08-06T09:39:26;4.20;;;1.67;;
78610;SDS011;67932;50.474;4.436;2023-08-06T09:41:55;5.70;;;1.08;;
78610;SDS011;67932;50.474;4.436;2023-08-06T09:44:24;3.72;;;1.05;;
78610;SDS011;67932;50.474;4.436;2023-08-06T09:46:51;3.67;;;1.02;;
78610;SDS011;67932;50.474;4.436;2023-08-06T09:49:19;3.08;;;1.10;;
78610;SDS011;67932;50.474;4.436;2023-08-06T09:51:53;4.90;;;1.17;;
78610;SDS011;67932;50.474;4.436;2023-08-06T09:54:23;2.33;;;0.90;;
78610;SDS011;67932;50.474;4.436;2023-08-06T09:56:52;3.90;;;1.10;;
78610;SDS011;67932;50.474;4.436;2023-08-06T09:59:19;5.70;;;1.20;;
78610;SDS011;67932;50.474;4.436;2023-08-06T10:01:46;4.18;;;1.30;;
78610;SDS011;67932;50.474;4.436;2023-08-06T10:04:14;4.72;;;1.15;;
78610;SDS011;67932;50.474;4.436;2023-08-06T10:06:41;4.43;;;1.35;;
78610;SDS011;67932;50.474;4.436;2023-08-06T10:09:11;3.08;;;1.50;;
78610;SDS011;67932;50.474;4.436;2023-08-06T10:11:37;2.85;;;1.30;;
78610;SDS011;67932;50.474;4.436;2023-08-06T10:14:06;5.78;;;1.38;;
78610;SDS011;67932;50.474;4.436;2023-08-06T10:16:58;4.45;;;1.45;;
78610;SDS011;67932;50.474;4.436;2023-08-06T10:19:25;3.22;;;1.08;;
78610;SDS011;67932;50.474;4.436;2023-08-06T10:24:48;4.93;;;1.27;;
78610;SDS011;67932;50.474;4.436;2023-08-06T10:27:31;4.35;;;1.25;;
78610;SDS011;67932;50.474;4.436;2023-08-06T10:32:52;2.22;;;1.00;;
78610;SDS011;67932;50.474;4.436;2023-08-06T10:38:05;2.58;;;1.10;;
78610;SDS011;67932;50.474;4.436;2023-08-06T10:40:39;2.55;;;1.20;;
78610;SDS011;67932;50.474;4.436;2023-08-06T10:43:07;4.05;;;1.23;;
78610;SDS011;67932;50.474;4.436;2023-08-06T10:45:49;3.20;;;1.15;;
78610;SDS011;67932;50.474;4.436;2023-08-06T10:48:28;3.22;;;1.05;;
78610;SDS011;67932;50.474;4.436;2023-08-06T10:51:02;3.13;;;1.30;;
78610;SDS011;67932;50.474;4.436;2023-08-06T10:53:30;2.85;;;1.13;;
78610;SDS011;67932;50.474;4.436;2023-08-06T10:55:56;4.78;;;1.48;;
78610;SDS011;67932;50.474;4.436;2023-08-06T10:58:22;7.82;;;1.52;;
78610;SDS011;67932;50.474;4.436;2023-08-06T11:00:49;2.67;;;1.05;;
78610;SDS011;67932;50.474;4.436;2023-08-06T11:03:15;4.03;;;1.20;;
78610;SDS011;67932;50.474;4.436;2023-08-06T11:05:48;4.78;;;1.60;;
78610;SDS011;67932;50.474;4.436;2023-08-06T11:08:27;4.32;;;1.30;;
78610;SDS011;67932;50.474;4.436;2023-08-06T11:10:55;3.05;;;1.30;;
78610;SDS011;67932;50.474;4.436;2023-08-06T11:13:32;2.38;;;1.30;;
78610;SDS011;67932;50.474;4.436;2023-08-06T11:15:58;2.33;;;1.33;;
78610;SDS011;67932;50.474;4.436;2023-08-06T11:18:25;6.05;;;1.85;;
78610;SDS011;67932;50.474;4.436;2023-08-06T11:20:51;3.25;;;1.10;;
78610;SDS011;67932;50.474;4.436;2023-08-06T11:23:17;3.25;;;1.10;;
78610;SDS011;67932;50.474;4.436;2023-08-06T11:25:44;3.92;;;1.80;;
78610;SDS011;67932;50.474;4.436;2023-08-06T11:28:11;3.03;;;1.08;;
78610;SDS011;67932;50.474;4.436;2023-08-06T11:30:38;5.07;;;1.80;;
78610;SDS011;67932;50.474;4.436;2023-08-06T11:33:06;2.92;;;1.05;;
78610;SDS011;67932;50.474;4.436;2023-08-06T11:35:35;3.53;;;1.55;;
78610;SDS011;67932;50.474;4.436;2023-08-06T11:38:02;4.65;;;1.73;;
78610;SDS011;67932;50.474;4.436;2023-08-06T11:40:28;2.72;;;1.30;;
78610;SDS011;67932;50.474;4.436;2023-08-06T11:42:55;6.13;;;1.20;;
78610;SDS011;67932;50.474;4.436;2023-08-06T11:45:22;2.92;;;1.05;;
78610;SDS011;67932;50.474;4.436;2023-08-06T11:47:51;2.72;;;1.17;;
78610;SDS011;67932;50.474;4.436;2023-08-06T11:50:21;6.38;;;1.30;;
78610;SDS011;67932;50.474;4.436;2023-08-06T11:52:49;3.20;;;1.20;;
78610;SDS011;67932;50.474;4.436;2023-08-06T11:55:23;2.20;;;0.95;;
78610;SDS011;67932;50.474;4.436;2023-08-06T11:57:50;2.13;;;0.80;;
78610;SDS011;67932;50.474;4.436;2023-08-06T12:00:16;2.80;;;0.80;;
78610;SDS011;67932;50.474;4.436;2023-08-06T12:02:45;4.10;;;1.20;;
78610;SDS011;67932;50.474;4.436;2023-08-06T12:05:12;3.58;;;0.98;;
78610;SDS011;67932;50.474;4.436;2023-08-06T12:07:47;4.35;;;1.20;;
78610;SDS011;67932;50.474;4.436;2023-08-06T12:10:18;4.60;;;1.27;;
78610;SDS011;67932;50.474;4.436;2023-08-06T12:12:45;4.90;;;1.30;;
78610;SDS011;67932;50.474;4.436;2023-08-06T12:15:12;6.03;;;1.50;;
78610;SDS011;67932;50.474;4.436;2023-08-06T12:17:38;6.80;;;1.38;;
78610;SDS011;67932;50.474;4.436;2023-08-06T12:20:05;1.80;;;1.10;;
78610;SDS011;67932;50.474;4.436;2023-08-06T12:22:32;4.35;;;1.00;;
78610;SDS011;67932;50.474;4.436;2023-08-06T12:25:03;4.70;;;1.10;;
78610;SDS011;67932;50.474;4.436;2023-08-06T12:27:36;2.53;;;0.80;;
78610;SDS011;67932;50.474;4.436;2023-08-06T12:30:04;2.40;;;1.05;;
78610;SDS011;67932;50.474;4.436;2023-08-06T12:32:31;3.47;;;0.90;;
78610;SDS011;67932;50.474;4.436;2023-08-06T12:34:58;4.80;;;1.30;;
78610;SDS011;67932;50.474;4.436;2023-08-06T12:37:25;3.00;;;0.98;;
78610;SDS011;67932;50.474;4.436;2023-08-06T12:39:51;4.43;;;1.02;;
78610;SDS011;67932;50.474;4.436;2023-08-06T12:42:18;3.33;;;0.80;;
78610;SDS011;67932;50.474;4.436;2023-08-06T12:44:44;2.92;;;0.60;;
78610;SDS011;67932;50.474;4.436;2023-08-06T12:47:11;1.75;;;0.88;;
78610;SDS011;67932;50.474;4.436;2023-08-06T12:49:37;3.25;;;1.00;;
78610;SDS011;67932;50.474;4.436;2023-08-06T12:52:03;1.65;;;0.60;;
78610;SDS011;67932;50.474;4.436;2023-08-06T12:54:31;2.42;;;0.70;;
78610;SDS011;67932;50.474;4.436;2023-08-06T12:57:04;4.00;;;0.80;;
78610;SDS011;67932;50.474;4.436;2023-08-06T12:59:31;3.70;;;1.30;;
78610;SDS011;67932;50.474;4.436;2023-08-06T13:02:01;4.13;;;1.20;;
78610;SDS011;67932;50.474;4.436;2023-08-06T13:04:28;1.90;;;1.15;;
78610;SDS011;67932;50.474;4.436;2023-08-06T13:06:55;2.58;;;1.13;;
78610;SDS011;67932;50.474;4.436;2023-08-06T13:09:21;3.38;;;1.23;;
78610;SDS011;67932;50.474;4.436;2023-08-06T13:11:47;4.15;;;1.00;;
78610;SDS011;67932;50.474;4.436;2023-08-06T13:14:15;3.47;;;1.42;;
78610;SDS011;67932;50.474;4.436;2023-08-06T13:16:42;2.35;;;1.40;;
78610;SDS011;67932;50.474;4.436;2023-08-06T13:19:10;3.65;;;1.40;;
78610;SDS011;67932;50.474;4.436;2023-08-06T13:24:07;3.13;;;1.45;;
78610;SDS011;67932;50.474;4.436;2023-08-06T13:26:34;3.80;;;1.17;;
78610;SDS011;67932;50.474;4.436;2023-08-06T13:29:00;2.40;;;0.95;;
78610;SDS011;67932;50.474;4.436;2023-08-06T13:31:27;3.85;;;1.17;;
78610;SDS011;67932;50.474;4.436;2023-08-06T13:33:54;4.50;;;1.10;;
78610;SDS011;67932;50.474;4.436;2023-08-06T13:36:21;4.10;;;1.50;;
78610;SDS011;67932;50.474;4.436;2023-08-06T13:38:47;3.47;;;1.05;;
78610;SDS011;67932;50.474;4.436;2023-08-06T13:41:14;4.03;;;0.88;;
78610;SDS011;67932;50.474;4.436;2023-08-06T13:43:40;4.45;;;0.93;;
78610;SDS011;67932;50.474;4.436;2023-08-06T13:46:07;4.15;;;1.02;;
78610;SDS011;67932;50.474;4.436;2023-08-06T13:48:34;4.53;;;0.85;;
78610;SDS011;67932;50.474;4.436;2023-08-06T13:51:00;5.30;;;1.00;;
78610;SDS011;67932;50.474;4.436;2023-08-06T13:53:27;1.77;;;1.00;;
78610;SDS011;67932;50.474;4.436;2023-08-06T13:55:55;1.85;;;1.00;;
78610;SDS011;67932;50.474;4.436;2023-08-06T13:58:22;2.85;;;0.80;;
78610;SDS011;67932;50.474;4.436;2023-08-06T14:00:48;2.47;;;0.70;;
78610;SDS011;67932;50.474;4.436;2023-08-06T14:03:17;5.95;;;1.23;;
78610;SDS011;67932;50.474;4.436;2023-08-06T14:05:44;3.33;;;1.00;;
78610;SDS011;67932;50.474;4.436;2023-08-06T14:08:10;3.40;;;1.23;;
78610;SDS011;67932;50.474;4.436;2023-08-06T14:10:36;4.03;;;1.17;;
78610;SDS011;67932;50.474;4.436;2023-08-06T14:13:03;4.00;;;1.00;;
78610;SDS011;67932;50.474;4.436;2023-08-06T14:15:29;3.80;;;1.35;;
78610;SDS011;67932;50.474;4.436;2023-08-06T14:17:55;3.75;;;1.38;;
78610;SDS011;67932;50.474;4.436;2023-08-06T14:20:21;5.40;;;0.98;;
78610;SDS011;67932;50.474;4.436;2023-08-06T14:22:48;2.97;;;1.05;;
78610;SDS011;67932;50.474;4.436;2023-08-06T14:25:14;5.97;;;1.05;;
78610;SDS011;67932;50.474;4.436;2023-08-06T14:27:40;3.47;;;0.80;;
78610;SDS011;67932;50.474;4.436;2023-08-06T14:30:07;4.80;;;1.10;;
78610;SDS011;67932;50.474;4.436;2023-08-06T14:32:33;3.55;;;1.30;;
78610;SDS011;67932;50.474;4.436;2023-08-06T14:35:00;4.00;;;1.13;;
78610;SDS011;67932;50.474;4.436;2023-08-06T14:37:26;2.40;;;0.80;;
78610;SDS011;67932;50.474;4.436;2023-08-06T14:39:52;2.50;;;0.93;;
78610;SDS011;67932;50.474;4.436;2023-08-06T14:42:18;2.58;;;0.82;;
78610;SDS011;67932;50.474;4.436;2023-08-06T14:44:45;2.08;;;0.80;;
78610;SDS011;67932;50.474;4.436;2023-08-06T14:47:11;1.67;;;0.80;;
78610;SDS011;67932;50.474;4.436;2023-08-06T14:49:37;3.20;;;0.82;;
78610;SDS011;67932;50.474;4.436;2023-08-06T14:52:04;3.00;;;1.02;;
78610;SDS011;67932;50.474;4.436;2023-08-06T14:54:30;4.57;;;1.20;;
78610;SDS011;67932;50.474;4.436;2023-08-06T14:56:57;4.40;;;0.70;;
78610;SDS011;67932;50.474;4.436;2023-08-06T14:59:23;3.17;;;0.93;;
78610;SDS011;67932;50.474;4.436;2023-08-06T15:01:49;3.47;;;1.00;;